Time;durP1;ratioP1;P1;durP2;ratioP2;P2;SDS_P1;SDS_P2;PMS_P1;PMS_P2;Temp;Humidity;BMP_temperature;BMP_pressure;BME280_temperature;BME280_humidity;BME280_pressure;Samples;Min_cycle;Max_cycle;Signal;HPM_P1;HPM_P2
2023/09/02 00:02:15;;;;;;;;;;;;;;;16.17;100.00;101583.84;5048112;28;1224;-84
2023/09/02 00:04:41;;;;;;;;;;;;;;;16.13;100.00;101577.28;5067228;28;1178;-82
2023/09/02 00:07:06;;;;;;;;;;;;;;;16.11;100.00;101577.41;5067539;28;1337;-85
2023/09/02 00:09:31;;;;;;;;;;;;;;;16.07;100.00;101570.81;5066266;28;1913;-85
2023/09/02 00:11:56;;;;;;;;;;;;;;;16.06;100.00;101576.22;5053881;28;1375;-84
2023/09/02 00:14:22;;;;;;;;;;;;;;;16.06;100.00;101576.22;5056796;28;1196;-84
2023/09/02 00:16:47;;;;;;;;;;;;;;;16.06;100.00;101576.22;5066066;28;1134;-83
2023/09/02 00:19:12;;;;;;;;;;;;;;;16.06;100.00;101581.44;5053593;28;1445;-83
2023/09/02 00:21:37;;;;;;;;;;;;;;;16.06;100.00;101584.06;5066042;28;1041;-84
2023/09/02 00:24:05;;;;;;;;;;;;;;;16.04;100.00;101585.97;5040348;28;1436;-83
2023/09/02 00:26:31;;;;;;;;;;;;;;;16.01;100.00;101591.50;5058922;28;1277;-84
2023/09/02 00:28:56;;;;;;;;;;;;;;;15.99;100.00;101591.63;5065464;28;1959;-84
2023/09/02 00:31:21;;;;;;;;;;;;;;;16.00;100.00;101587.22;5066901;28;1135;-84
2023/09/02 00:33:46;;;;;;;;;;;;;;;16.00;100.00;101587.22;5064658;28;1086;-84
2023/09/02 00:36:11;;;;;;;;;;;;;;;15.97;100.00;101585.72;5067799;28;1570;-84
2023/09/02 00:38:37;;;;;;;;;;;;;;;15.93;100.00;101585.16;5055396;28;1351;-84
2023/09/02 00:41:03;;;;;;;;;;;;;;;15.92;100.00;101591.38;5052605;28;1307;-84
2023/09/02 00:43:29;;;;;;;;;;;;;;;15.91;100.00;101587.09;5045823;28;1252;-83
2023/09/02 00:45:54;;;;;;;;;;;;;;;15.91;100.00;101592.34;5047010;28;1334;-84
2023/09/02 00:48:20;;;;;;;;;;;;;;;15.89;100.00;101588.22;5048842;28;1894;-84
2023/09/02 00:50:45;;;;;;;;;;;;;;;15.87;100.00;101590.97;5053161;28;1168;-84
2023/09/02 00:53:10;;;;;;;;;;;;;;;15.86;100.00;101594.56;5044638;28;1953;-83
2023/09/02 00:55:35;;;;;;;;;;;;;;;15.82;100.00;101593.16;5052914;28;1061;-84
2023/09/02 00:58:01;;;;;;;;;;;;;;;15.80;100.00;101595.13;5067821;28;1044;-84
2023/09/02 01:00:26;;;;;;;;;;;;;;;15.76;100.00;101588.50;5070028;28;1069;-84
2023/09/02 01:02:52;;;;;;;;;;;;;;;15.73;100.00;101583.56;5053805;28;1224;-84
2023/09/02 01:05:19;;;;;;;;;;;;;;;15.73;100.00;101588.81;5069889;28;1306;-83
2023/09/02 01:07:45;;;;;;;;;;;;;;;15.71;100.00;101595.94;5070815;28;1894;-82
2023/09/02 01:10:10;;;;;;;;;;;;;;;15.71;100.00;101590.72;5069078;28;1384;-85
2023/09/02 01:12:35;;;;;;;;;;;;;;;15.71;100.00;101590.72;5055698;28;1336;-85
2023/09/02 01:15:01;;;;;;;;;;;;;;;15.71;100.00;101595.94;5065213;28;1106;-84
2023/09/02 01:17:26;;;;;;;;;;;;;;;15.73;100.00;101590.59;5065804;28;1150;-83
2023/09/02 01:19:51;;;;;;;;;;;;;;;15.73;100.00;101594.03;5069821;28;1166;-83
2023/09/02 01:22:19;;;;;;;;;;;;;;;15.76;100.00;101592.91;5063492;28;1312;-83
2023/09/02 01:24:54;;;;;;;;;;;;;;;15.76;100.00;101598.97;5062054;28;1219;-82
2023/09/02 01:27:23;;;;;;;;;;;;;;;15.77;100.00;101600.63;5064425;28;1099;-84
2023/09/02 01:29:58;;;;;;;;;;;;;;;15.77;100.00;101605.88;5066469;28;1215;-84
2023/09/02 01:32:26;;;;;;;;;;;;;;;15.79;100.00;101600.50;5062824;28;1139;-83
2023/09/02 01:34:53;;;;;;;;;;;;;;;15.81;100.00;101602.00;5057461;28;1737;-83
2023/09/02 01:37:19;;;;;;;;;;;;;;;15.80;100.00;101608.19;5067587;28;1271;-83
2023/09/02 01:39:46;;;;;;;;;;;;;;;15.79;100.00;101609.16;5065817;28;1462;-85
2023/09/02 01:42:12;;;;;;;;;;;;;;;15.79;100.00;101611.78;5067987;28;1327;-84
2023/09/02 01:44:38;;;;;;;;;;;;;;;15.81;100.00;101622.09;5052168;28;1418;-85
2023/09/02 01:47:03;;;;;;;;;;;;;;;15.80;100.00;101616.03;5069685;28;1513;-86
2023/09/02 01:49:29;;;;;;;;;;;;;;;15.80;100.00;101625.69;5071143;28;1957;-83
2023/09/02 01:51:56;;;;;;;;;;;;;;;15.78;100.00;101617.97;5056485;28;1264;-84
2023/09/02 01:54:21;;;;;;;;;;;;;;;15.76;100.00;101617.28;5072581;28;1363;-84
2023/09/02 01:56:47;;;;;;;;;;;;;;;15.76;100.00;101617.28;5063880;28;1200;-84
2023/09/02 01:59:12;;;;;;;;;;;;;;;15.78;100.00;101620.59;5063906;28;1362;-83
2023/09/02 02:01:37;;;;;;;;;;;;;;;15.77;100.00;101616.34;5052990;28;1351;-84
2023/09/02 02:04:21;;;;;;;;;;;;;;;15.79;100.00;101619.63;5069417;28;1276;-84
2023/09/02 02:06:46;;;;;;;;;;;;;;;15.80;100.00;101621.28;5065082;28;1118;-82
2023/09/02 02:09:12;;;;;;;;;;;;;;;15.83;100.00;101626.25;5066470;28;1898;-83
2023/09/02 02:11:38;;;;;;;;;;;;;;;15.83;100.00;101615.78;5065855;28;1367;-84
2023/09/02 02:14:04;;;;;;;;;;;;;;;15.85;100.00;101619.06;5047073;28;1424;-83
2023/09/02 02:16:30;;;;;;;;;;;;;;;15.86;100.00;101620.72;5066740;28;1165;-81
2023/09/02 02:18:56;;;;;;;;;;;;;;;15.87;100.00;101632.00;5057292;28;1263;-84
2023/09/02 02:21:21;;;;;;;;;;;;;;;15.84;100.00;101633.13;5049750;28;1199;-82
2023/09/02 02:23:46;;;;;;;;;;;;;;;15.85;100.00;101634.75;5066747;28;1394;-84
2023/09/02 02:26:11;;;;;;;;;;;;;;;15.81;100.00;101630.75;5063959;28;1193;-84
2023/09/02 02:28:38;;;;;;;;;;;;;;;15.82;100.00;101640.25;5058256;28;1902;-83
2023/09/02 02:31:03;;;;;;;;;;;;;;;15.81;100.00;101632.56;5064636;28;1120;-83
2023/09/02 02:33:28;;;;;;;;;;;;;;;15.79;100.00;101637.94;5052937;28;1179;-83
2023/09/02 02:35:54;;;;;;;;;;;;;;;15.78;100.00;101638.91;5067741;28;1298;-83
2023/09/02 02:38:19;;;;;;;;;;;;;;;15.79;100.00;101640.56;5064566;28;1377;-84
2023/09/02 02:40:44;;;;;;;;;;;;;;;15.77;100.00;101632.03;5066920;28;1263;-81
2023/09/02 02:43:10;;;;;;;;;;;;;;;15.75;100.00;101633.94;5067075;28;1505;-83
2023/09/02 02:45:36;;;;;;;;;;;;;;;15.75;100.00;101633.13;5048166;28;1231;-82
2023/09/02 02:48:02;;;;;;;;;;;;;;;15.73;100.00;101630.66;5053372;28;1894;-83
2023/09/02 02:50:27;;;;;;;;;;;;;;;15.69;100.00;101631.88;5050681;28;1254;-83
2023/09/02 02:52:52;;;;;;;;;;;;;;;15.64;100.00;101636.69;5051847;28;1197;-83
2023/09/02 02:55:17;;;;;;;;;;;;;;;15.62;100.00;101633.38;5051008;28;1236;-82
2023/09/02 02:57:44;;;;;;;;;;;;;;;15.62;100.00;101636.84;5054186;28;1263;-84
2023/09/02 03:00:09;;;;;;;;;;;;;;;15.62;100.00;101633.38;5056711;28;1661;-84
2023/09/02 03:02:35;;;;;;;;;;;;;;;15.61;100.00;101631.72;5052732;28;1313;-84
2023/09/02 03:05:00;;;;;;;;;;;;;;;15.60;100.00;101630.09;5066758;28;1496;-84
2023/09/02 03:07:25;;;;;;;;;;;;;;;15.63;100.00;101635.06;5064932;28;1882;-83
2023/09/02 03:09:50;;;;;;;;;;;;;;;15.66;100.00;101632.19;5049126;28;1578;-83
2023/09/02 03:12:16;;;;;;;;;;;;;;;15.67;100.00;101620.75;5051104;28;1269;-83
2023/09/02 03:14:42;;;;;;;;;;;;;;;15.68;100.00;101627.63;5062779;28;1238;-83
2023/09/02 03:17:07;;;;;;;;;;;;;;;15.69;100.00;101626.66;5056968;28;1373;-84
2023/09/02 03:19:32;;;;;;;;;;;;;;;15.69;100.00;101629.25;5045503;28;1585;-83
2023/09/02 03:21:57;;;;;;;;;;;;;;;15.68;100.00;101632.84;5050602;28;1231;-83
2023/09/02 03:24:22;;;;;;;;;;;;;;;15.65;100.00;101630.50;5068361;28;1240;-80
2023/09/02 03:26:48;;;;;;;;;;;;;;;15.65;100.00;101638.34;5058211;28;1272;-84
2023/09/02 03:29:14;;;;;;;;;;;;;;;15.66;100.00;101632.19;5068147;28;1973;-84
2023/09/02 03:31:39;;;;;;;;;;;;;;;15.66;100.00;101640.03;5066455;28;1250;-84
2023/09/02 03:34:04;;;;;;;;;;;;;;;15.65;100.00;101639.19;5055681;28;1450;-83
2023/09/02 03:36:30;;;;;;;;;;;;;;;15.65;100.00;101627.88;5055341;28;1339;-83
2023/09/02 03:38:55;;;;;;;;;;;;;;;15.61;100.00;101640.41;5067346;28;1354;-83
2023/09/02 03:41:23;;;;;;;;;;;;;;;15.61;100.00;101642.19;5067501;28;1329;-82
2023/09/02 03:43:48;;;;;;;;;;;;;;;15.57;100.00;101640.81;5065938;28;1266;-83
2023/09/02 03:46:13;;;;;;;;;;;;;;;15.56;100.00;101639.16;5067492;28;1311;-84
2023/09/02 03:48:39;;;;;;;;;;;;;;;15.53;100.00;101640.25;5053626;28;1886;-83
2023/09/02 03:51:05;;;;;;;;;;;;;;;15.53;100.00;101647.25;5053420;28;1232;-84
2023/09/02 03:53:33;;;;;;;;;;;;;;;15.50;100.00;101655.41;5054160;28;1205;-83
2023/09/02 03:55:59;;;;;;;;;;;;;;;15.49;100.00;101653.75;5067460;28;1124;-84
2023/09/02 03:58:25;;;;;;;;;;;;;;;15.47;100.00;101655.66;5054420;28;1410;-83
2023/09/02 04:00:50;;;;;;;;;;;;;;;15.46;100.00;101654.00;5067329;28;1271;-83
2023/09/02 04:03:19;;;;;;;;;;;;;;;15.45;100.00;101665.44;5067462;28;1240;-83
2023/09/02 04:05:44;;;;;;;;;;;;;;;15.43;100.00;101654.28;5052282;28;1186;-84
2023/09/02 04:08:09;;;;;;;;;;;;;;;15.44;100.00;101666.41;5046430;28;1992;-83
2023/09/02 04:10:35;;;;;;;;;;;;;;;15.45;100.00;101657.59;5064832;28;1185;-83
2023/09/02 04:13:00;;;;;;;;;;;;;;;15.43;100.00;101657.72;5049669;28;1242;-83
2023/09/02 04:15:25;;;;;;;;;;;;;;;15.44;100.00;101662.00;5062484;28;956;-83
2023/09/02 04:17:50;;;;;;;;;;;;;;;15.44;100.00;101669.00;5066015;28;1082;-83
2023/09/02 04:20:16;;;;;;;;;;;;;;;15.45;100.00;101668.03;5060676;28;1137;-83
2023/09/02 04:22:41;;;;;;;;;;;;;;;15.41;100.00;101668.31;5049919;28;1163;-81
2023/09/02 04:25:10;;;;;;;;;;;;;;;15.40;100.00;101666.66;5065511;28;1083;-83
2023/09/02 04:27:35;;;;;;;;;;;;;;;15.43;100.00;101664.75;5049504;28;1890;-83
2023/09/02 04:30:00;;;;;;;;;;;;;;;15.40;100.00;101666.66;5057220;28;1350;-83
2023/09/02 04:32:25;;;;;;;;;;;;;;;15.39;100.00;101665.00;5048117;28;1040;-81
2023/09/02 04:34:51;;;;;;;;;;;;;;;15.36;100.00;101670.50;5042973;28;1255;-83
2023/09/02 04:37:16;;;;;;;;;;;;;;;15.37;100.00;101672.16;5066089;28;1341;-84
2023/09/02 04:39:41;;;;;;;;;;;;;;;15.37;100.00;101676.56;5052049;28;1344;-82
2023/09/02 04:42:06;;;;;;;;;;;;;;;15.35;100.00;101678.47;5065236;28;1187;-83
2023/09/02 04:44:31;;;;;;;;;;;;;;;15.34;100.00;101682.88;5065682;28;1236;-82
2023/09/02 04:46:57;;;;;;;;;;;;;;;15.35;100.00;101679.31;5066313;28;1408;-83
2023/09/02 04:49:22;;;;;;;;;;;;;;;15.35;100.00;101689.75;5063744;28;1897;-83
2023/09/02 04:51:48;;;;;;;;;;;;;;;15.32;100.00;101690.03;5052850;28;1285;-83
2023/09/02 04:54:14;;;;;;;;;;;;;;;15.34;100.00;101692.50;5064226;28;1347;-84
2023/09/02 04:56:39;;;;;;;;;;;;;;;15.33;100.00;101694.31;5059618;28;1268;-83
2023/09/02 04:59:04;;;;;;;;;;;;;;;15.33;100.00;101691.69;5063633;28;1037;-82
2023/09/02 05:01:29;;;;;;;;;;;;;;;15.32;100.00;101695.28;5048037;28;1340;-83
2023/09/02 05:03:55;;;;;;;;;;;;;;;15.30;100.00;101691.94;5064652;28;1266;-82
2023/09/02 05:06:20;;;;;;;;;;;;;;;15.28;100.00;101686.03;5065398;28;1303;-83
2023/09/02 05:08:45;;;;;;;;;;;;;;;15.29;100.00;101689.47;5063512;28;1963;-83
2023/09/02 05:11:10;;;;;;;;;;;;;;;15.27;100.00;101692.22;5051213;28;1323;-82
2023/09/02 05:13:35;;;;;;;;;;;;;;;15.25;100.00;101699.34;5064792;28;1051;-83
2023/09/02 05:16:01;;;;;;;;;;;;;;;15.24;100.00;101702.94;5057431;28;1276;-83
2023/09/02 05:18:26;;;;;;;;;;;;;;;15.23;100.00;101703.09;5062641;28;1193;-83
2023/09/02 05:20:55;;;;;;;;;;;;;;;15.21;100.00;101705.84;5066459;28;1318;-83
2023/09/02 05:23:20;;;;;;;;;;;;;;;15.19;100.00;101705.13;5063420;28;1291;-83
2023/09/02 05:25:45;;;;;;;;;;;;;;;15.17;100.00;101712.28;5045248;28;1264;-84
2023/09/02 05:28:10;;;;;;;;;;;;;;;15.14;100.00;101713.38;5063094;28;1979;-83
2023/09/02 05:30:36;;;;;;;;;;;;;;;15.15;100.00;101722.06;5064149;28;1493;-83
2023/09/02 05:33:01;;;;;;;;;;;;;;;15.13;100.00;101721.34;5058765;28;1314;-83
2023/09/02 05:35:26;;;;;;;;;;;;;;;15.14;100.00;101715.19;5046916;28;1248;-84
2023/09/02 05:37:51;;;;;;;;;;;;;;;15.14;100.00;101720.41;5037850;28;1581;-83
2023/09/02 05:40:17;;;;;;;;;;;;;;;15.13;100.00;101722.16;5047214;28;1554;-83
2023/09/02 05:42:42;;;;;;;;;;;;;;;15.16;100.00;101721.09;5066547;28;1517;-81
2023/09/02 05:45:07;;;;;;;;;;;;;;;15.20;100.00;101730.31;5065768;28;1428;-83
2023/09/02 05:47:32;;;;;;;;;;;;;;;15.22;100.00;101738.84;5066573;28;1937;-84
2023/09/02 05:49:58;;;;;;;;;;;;;;;15.25;100.00;101746.41;5065492;28;1227;-84
2023/09/02 05:52:23;;;;;;;;;;;;;;;15.24;100.00;101747.38;5059791;28;1216;-81
2023/09/02 05:54:48;;;;;;;;;;;;;;;15.27;100.00;101749.72;5058629;28;1307;-83
2023/09/02 05:57:13;;;;;;;;;;;;;;;15.29;100.00;101742.56;5066481;28;1493;-83
2023/09/02 05:59:38;;;;;;;;;;;;;;;15.30;100.00;101744.22;5063551;28;1304;-84
2023/09/02 06:02:04;;;;;;;;;;;;;;;15.31;100.00;101745.91;5064949;28;1229;-83
2023/09/02 06:04:29;;;;;;;;;;;;;;;15.32;100.00;101750.16;5064817;28;1422;-83
2023/09/02 06:06:54;;;;;;;;;;;;;;;15.33;100.00;101749.19;5053074;28;1325;-85
2023/09/02 06:09:19;;;;;;;;;;;;;;;15.36;100.00;101753.31;5066874;28;1953;-82
2023/09/02 06:11:44;;;;;;;;;;;;;;;15.39;100.00;101747.84;5062342;28;1132;-83
2023/09/02 06:14:10;;;;;;;;;;;;;;;15.39;100.00;101751.28;5063273;28;1290;-84
2023/09/02 06:16:35;;;;;;;;;;;;;;;15.41;100.00;101751.97;5067567;28;1249;-83
2023/09/02 06:19:00;;;;;;;;;;;;;;;15.44;100.00;101760.50;5066272;28;1104;-83
2023/09/02 06:21:26;;;;;;;;;;;;;;;15.45;100.00;101767.38;5065980;28;1078;-84
2023/09/02 06:23:51;;;;;;;;;;;;;;;15.47;100.00;101765.47;5067400;28;1163;-83
2023/09/02 06:26:16;;;;;;;;;;;;;;;15.48;100.00;101772.34;5051418;28;1290;-84
2023/09/02 06:28:41;;;;;;;;;;;;;;;15.48;100.00;101777.56;5051311;28;1894;-84
2023/09/02 06:31:08;;;;;;;;;;;;;;;15.49;100.00;101774.84;5063266;28;1015;-84
2023/09/02 06:33:33;;;;;;;;;;;;;;;15.53;100.00;101780.59;5067841;28;1132;-84
2023/09/02 06:35:58;;;;;;;;;;;;;;;15.55;100.00;101787.38;5062682;28;1259;-84
2023/09/02 06:38:23;;;;;;;;;;;;;;;15.58;100.00;101788.88;5052810;28;1414;-85
2023/09/02 06:40:48;;;;;;;;;;;;;;;15.60;100.00;101792.22;5066730;28;1160;-85
2023/09/02 06:43:14;;;;;;;;;;;;;;;15.63;100.00;101798.00;5047904;28;1418;-85
2023/09/02 06:45:39;;;;;;;;;;;;;;;15.65;100.00;101800.47;5051065;28;1290;-84
2023/09/02 06:48:04;;;;;;;;;;;;;;;15.65;100.00;101803.09;5063787;28;1889;-84
2023/09/02 06:50:29;;;;;;;;;;;;;;;15.68;100.00;101812.47;5058781;28;1286;-84
2023/09/02 06:52:55;;;;;;;;;;;;;;;15.66;100.00;101812.63;5064078;28;1069;-83
2023/09/02 06:55:20;;;;;;;;;;;;;;;15.65;100.00;101816.16;5067191;28;1011;-84
2023/09/02 06:57:45;;;;;;;;;;;;;;;15.65;100.00;101821.41;5060465;28;1102;-85
2023/09/02 07:00:11;;;;;;;;;;;;;;;15.66;100.00;101823.91;5052921;28;1271;-84
2023/09/02 07:02:37;;;;;;;;;;;;;;;15.72;100.00;101833.00;5067131;28;1347;-85
2023/09/02 07:05:02;;;;;;;;;;;;;;;15.76;100.00;101839.59;5057349;28;1288;-85
2023/09/02 07:07:27;;;;;;;;;;;;;;;15.74;100.00;101846.78;5052943;28;1307;-84
2023/09/02 07:09:53;;;;;;;;;;;;;;;15.72;100.00;101838.25;5068681;28;1959;-85
2023/09/02 07:12:18;;;;;;;;;;;;;;;15.71;100.00;101839.19;5067118;28;1200;-84
2023/09/02 07:14:43;;;;;;;;;;;;;;;15.74;100.00;101846.78;5066785;28;1319;-84
2023/09/02 07:17:08;;;;;;;;;;;;;;;15.78;100.00;101847.34;5066594;28;1048;-84
2023/09/02 07:19:34;;;;;;;;;;;;;;;15.81;100.00;101858.34;5066190;28;1125;-85
2023/09/02 07:21:59;;;;;;;;;;;;;;;15.87;100.00;101859.59;5052330;28;1280;-84
2023/09/02 07:24:27;;;;;;;;;;;;;;;15.89;100.00;101868.16;5064057;28;1320;-83
2023/09/02 07:26:52;;;;;;;;;;;;;;;15.88;100.00;101864.69;5065054;28;1543;-84
2023/09/02 07:29:17;;;;;;;;;;;;;;;15.92;100.00;101865.25;5054169;28;1894;-84
2023/09/02 07:31:42;;;;;;;;;;;;;;;15.98;100.00;101869.13;5065377;28;1334;-81
2023/09/02 07:34:09;;;;;;;;;;;;;;;16.03;100.00;101870.38;5054143;28;1440;-84
2023/09/02 07:36:34;;;;;;;;;;;;;;;16.04;100.00;101873.81;5054164;28;1264;-83
2023/09/02 07:39:00;;;;;;;;;;;;;;;16.04;100.00;101873.81;5049582;28;1175;-84
2023/09/02 07:41:25;;;;;;;;;;;;;;;16.06;100.00;101877.16;5064559;28;1104;-85
2023/09/02 07:43:50;;;;;;;;;;;;;;;16.01;100.00;101879.34;5065880;28;1160;-85
2023/09/02 07:46:15;;;;;;;;;;;;;;;15.99;100.00;101887.31;5065090;28;1363;-82
2023/09/02 07:48:43;;;;;;;;;;;;;;;16.01;100.00;101889.81;5066919;28;1893;-84
2023/09/02 07:51:08;;;;;;;;;;;;;;;16.03;100.00;101882.63;5064686;28;1217;-83
2023/09/02 07:53:33;;;;;;;;;;;;;;;16.06;100.00;101883.22;5069212;28;1303;-85
2023/09/02 07:55:58;;;;;;;;;;;;;;;16.07;100.00;101889.25;5051655;28;1228;-85
2023/09/02 07:58:23;;;;;;;;;;;;;;;16.06;100.00;101893.69;5067376;28;1000;-84
2023/09/02 08:00:49;;;;;;;;;;;;;;;16.11;100.00;101901.09;5067276;28;1188;-86
2023/09/02 08:03:14;;;;;;;;;;;;;;;16.17;100.00;101895.31;5058929;28;1461;-84
2023/09/02 08:05:40;;;;;;;;;;;;;;;16.18;100.00;101902.22;5067294;28;1263;-84
2023/09/02 08:08:06;;;;;;;;;;;;;;;16.21;100.00;101904.56;5058223;28;1898;-84
2023/09/02 08:10:31;;;;;;;;;;;;;;;16.25;100.00;101918.22;5064961;28;1111;-84
2023/09/02 08:12:56;;;;;;;;;;;;;;;16.26;100.00;101920.69;5056241;28;1191;-85
2023/09/02 08:15:22;;;;;;;;;;;;;;;16.26;100.00;101915.47;5051026;28;2355;-84
2023/09/02 08:17:47;;;;;;;;;;;;;;;16.30;100.00;101927.31;5062645;28;1471;-82
2023/09/02 08:20:14;;;;;;;;;;;;;;;16.34;100.00;101923.44;5065084;28;1012;-84
2023/09/02 08:22:42;;;;;;;;;;;;;;;16.33;100.00;101921.81;5066135;28;996;-84
2023/09/02 08:25:07;;;;;;;;;;;;;;;16.38;100.00;101937.94;5060052;28;1004;-84
2023/09/02 08:27:33;;;;;;;;;;;;;;;16.40;100.00;101930.78;5054395;28;1368;-85
2023/09/02 08:29:58;;;;;;;;;;;;;;;16.44;100.00;101933.94;5057927;28;1901;-83
2023/09/02 08:32:23;;;;;;;;;;;;;;;16.42;100.00;101928.84;5054822;28;1180;-83
2023/09/02 08:34:48;;;;;;;;;;;;;;;16.44;100.00;101929.53;5065366;28;1227;-83
2023/09/02 08:37:13;;;;;;;;;;;;;;;16.45;100.00;101931.19;5059793;28;1085;-82
2023/09/02 08:39:39;;;;;;;;;;;;;;;16.48;100.00;101931.91;5058988;28;1235;-85
2023/09/02 08:42:04;;;;;;;;;;;;;;;16.52;100.00;101941.13;5067589;28;1211;-83
2023/09/02 08:44:34;;;;;;;;;;;;;;;16.53;100.00;101932.31;5064402;28;1361;-84
2023/09/02 08:47:01;;;;;;;;;;;;;;;16.58;100.00;101938.78;5066017;28;1663;-83
2023/09/02 08:49:27;;;;;;;;;;;;;;;16.61;100.00;101937.69;5063480;28;1949;-84
2023/09/02 08:51:52;;;;;;;;;;;;;;;16.63;100.00;101927.88;5048776;28;1236;-84
2023/09/02 08:54:27;;;;;;;;;;;;;;;16.65;100.00;101923.34;5058316;28;1210;-84
2023/09/02 08:56:54;;;;;;;;;;;;;;;16.69;100.00;101922.13;5062734;28;1423;-85
2023/09/02 08:59:20;;;;;;;;;;;;;;;16.71;100.00;101936.75;5043110;28;1541;-82
2023/09/02 09:01:45;;;;;;;;;;;;;;;16.73;100.00;101923.50;5046115;28;1629;-84
2023/09/02 09:04:14;;;;;;;;;;;;;;;16.78;100.00;101923.09;5062198;28;1605;-86
2023/09/02 09:06:40;;;;;;;;;;;;;;;16.83;100.00;101918.28;5062815;28;1568;-85
2023/09/02 09:09:09;;;;;;;;;;;;;;;16.87;100.00;101930.97;5064369;28;1922;-81
2023/09/02 09:11:39;;;;;;;;;;;;;;;16.89;100.00;101934.25;5061212;28;1176;-83
2023/09/02 09:14:05;;;;;;;;;;;;;;;16.90;100.00;101935.91;5045731;28;1256;-86
2023/09/02 09:16:35;;;;;;;;;;;;;;;16.92;100.00;101944.47;5050044;28;1310;-84
2023/09/02 09:19:01;;;;;;;;;;;;;;;16.94;100.00;101946.94;5058690;28;1404;-86
2023/09/02 09:21:26;;;;;;;;;;;;;;;16.98;100.00;101951.78;5063628;28;1109;-85
2023/09/02 09:23:51;;;;;;;;;;;;;;;17.04;100.00;101963.50;5068919;28;1307;-86
2023/09/02 09:26:18;;;;;;;;;;;;;;;17.06;100.00;101960.72;5069616;28;1143;-85
2023/09/02 09:28:51;;;;;;;;;;;;;;;17.09;100.00;101966.53;5065747;28;1909;-85
2023/09/02 09:31:16;;;;;;;;;;;;;;;17.13;100.00;101975.75;5070703;28;1131;-85
2023/09/02 09:33:48;;;;;;;;;;;;;;;17.14;100.00;101979.19;5066317;28;1276;-85
2023/09/02 09:36:13;;;;;;;;;;;;;;;17.18;100.00;101976.16;5067047;28;1289;-85
2023/09/02 09:38:39;;;;;;;;;;;;;;;17.20;100.00;101978.63;5058368;28;1265;-86
2023/09/02 09:41:07;;;;;;;;;;;;;;;17.22;100.00;101987.22;5055074;28;1440;-84
2023/09/02 09:43:33;;;;;;;;;;;;;;;17.26;100.00;101996.44;5051344;28;1350;-86
2023/09/02 09:45:59;;;;;;;;;;;;;;;17.29;100.00;101993.53;5052253;28;1318;-87
2023/09/02 09:48:24;;;;;;;;;;;;;;;17.33;100.00;102005.41;5061379;28;1914;-83
2023/09/02 09:50:50;;;;;;;;;;;;;;;17.35;100.00;102013.97;5046494;28;1326;-83
2023/09/02 09:53:15;;;;;;;;;;;;;;;17.37;100.00;102012.00;5066059;28;1311;-85
2023/09/02 09:55:41;;;;;;;;;;;;;;;17.44;100.00;101997.38;5063660;28;1477;-84
2023/09/02 09:58:06;;;;;;;;;;;;;;;17.48;100.00;101998.75;5048381;28;1199;-83
2023/09/02 10:00:31;;;;;;;;;;;;;;;17.57;100.00;102001.50;5068424;28;1153;-86
2023/09/02 10:02:57;;;;;;;;;;;;;;;17.63;100.00;102016.66;5050961;28;1387;-81
2023/09/02 10:05:26;;;;;;;;;;;;;;;17.66;100.00;102017.22;5059228;28;1342;-84
2023/09/02 10:08:03;;;;;;;;;;;;;;;17.66;100.00;102024.25;5050706;28;1910;-86
2023/09/02 10:10:29;;;;;;;;;;;;;;;17.69;100.00;102037.09;5056013;28;1296;-83
2023/09/02 10:12:55;;;;;;;;;;;;;;;17.72;100.00;102027.19;5061816;28;1595;-85
2023/09/02 10:15:24;;;;;;;;;;;;;;;17.76;100.00;102027.69;5066955;28;1047;-83
2023/09/02 10:17:50;;;;;;;;;;;;;;;17.79;100.00;102027.44;5068106;28;1110;-83
2023/09/02 10:20:15;;;;;;;;;;;;;;;17.83;100.00;102028.78;5059476;28;989;-86
2023/09/02 10:22:42;;;;;;;;;;;;;;;17.88;100.00;102036.22;5059001;28;1170;-87
2023/09/02 10:25:18;;;;;;;;;;;;;;;17.93;100.00;102040.06;5058094;28;1240;-85
2023/09/02 10:27:47;;;;;;;;;;;;;;;18.01;100.00;102037.59;5062854;28;1004;-85
2023/09/02 10:30:22;;;;;;;;;;;;;;;18.10;100.00;102038.50;5062708;28;1173;-84
2023/09/02 10:32:50;;;;;;;;;;;;;;;18.14;100.00;102041.66;5062630;28;969;-84
2023/09/02 10:35:21;;;;;;;;;;;;;;;18.17;100.00;102050.06;5065302;28;1200;-85
2023/09/02 10:37:51;;;;;;;;;;;;;;;18.23;100.00;102040.78;5066715;28;1187;-85
2023/09/02 10:40:37;;;;;;;;;;;;;;;18.28;100.00;102054.31;5062623;28;1293;-85
2023/09/02 10:43:03;;;;;;;;;;;;;;;18.32;100.00;102050.44;5062848;28;1192;-85
2023/09/02 10:45:28;;;;;;;;;;;;;;;18.33;100.00;102052.06;5051044;28;1386;-84
2023/09/02 10:47:54;;;;;;;;;;;;;;;18.35;100.00;102058.03;5067772;28;1898;-84
2023/09/02 10:50:20;;;;;;;;;;;;;;;18.38;100.00;102060.34;5065273;28;1252;-85
2023/09/02 10:52:48;;;;;;;;;;;;;;;18.40;100.00;102063.66;5062272;28;1461;-83
2023/09/02 10:55:13;;;;;;;;;;;;;;;18.38;100.00;102060.34;5062602;28;1172;-83
2023/09/02 10:57:55;;;;;;;;;;;;;;;18.42;100.00;102060.91;5053550;28;1355;-84
2023/09/02 11:00:22;;;;;;;;;;;;;;;18.46;100.00;102056.97;5049898;28;1367;-85
2023/09/02 11:02:49;;;;;;;;;;;;;;;18.52;100.00;102056.38;5049611;28;1522;-84
2023/09/02 11:05:14;;;;;;;;;;;;;;;18.55;100.00;102064.81;5059618;28;1212;-82
2023/09/02 11:07:40;;;;;;;;;;;;;;;18.57;100.00;102057.59;5065059;28;1252;-85
2023/09/02 11:10:06;;;;;;;;;;;;;;;18.58;100.00;102061.91;5038851;28;1993;-85
2023/09/02 11:12:33;;;;;;;;;;;;;;;18.60;100.00;102053.88;5044924;28;1506;-85
2023/09/02 11:15:07;;;;;;;;;;;;;;;18.66;100.00;102057.72;5049545;28;1335;-83
2023/09/02 11:17:33;;;;;;;;;;;;;;;18.70;100.00;102053.84;5051558;28;1577;-85
2023/09/02 11:19:59;;;;;;;;;;;;;;;18.73;100.00;102053.53;5062144;28;1252;-85
2023/09/02 11:22:43;;;;;;;;;;;;;;;18.80;100.00;102054.59;5073794;28;1294;-84
2023/09/02 11:25:08;;;;;;;;;;;;;;;18.83;100.00;102054.31;5067551;28;1414;-82
2023/09/02 11:27:44;;;;;;;;;;;;;;;18.88;100.00;102046.81;5062909;28;1197;-83
2023/09/02 11:30:10;;;;;;;;;;;;;;;18.93;100.00;102055.06;5064959;28;1977;-84
2023/09/02 11:32:43;;;;;;;;;;;;;;;18.99;100.00;102054.47;5056019;28;1354;-85
2023/09/02 11:35:08;;;;;;;;;;;;;;;19.05;100.00;102063.56;5055648;28;1362;-85
2023/09/02 11:37:33;;;;;;;;;;;;;;;19.02;100.00;102059.41;5055267;28;1509;-85
2023/09/02 11:40:11;;;;;;;;;;;;;;;19.03;100.00;102071.56;5067478;28;1288;-85
2023/09/02 11:42:46;;;;;;;;;;;;;;;19.04;100.00;102073.25;5064018;28;1212;-84
2023/09/02 11:45:13;;;;;;;;;;;;;;;19.04;100.00;102073.25;5063857;28;1536;-83
2023/09/02 11:47:38;;;;;;;;;;;;;;;19.07;100.00;102069.47;5060994;28;1322;-86
2023/09/02 11:50:03;;;;;;;;;;;;;;;19.07;100.00;102072.94;5045277;28;1894;-81
2023/09/02 11:52:29;;;;;;;;;;;;;;;19.05;100.00;102074.91;5067850;28;1271;-84
2023/09/02 11:54:54;;;;;;;;;;;;;;;19.05;100.00;102087.22;5047301;28;1431;-84
2023/09/02 11:57:20;;;;;;;;;;;;;;;19.07;100.00;102091.34;5063202;28;1215;-85
2023/09/02 11:59:45;;;;;;;;;;;;;;;19.09;100.00;102092.00;5059311;28;1287;-84
2023/09/02 12:02:12;;;;;;;;;;;;;;;19.10;100.00;102096.31;5064921;28;1271;-80
2023/09/02 12:04:40;;;;;;;;;;;;;;;19.09;100.00;102099.91;5051200;28;1570;-85
2023/09/02 12:07:06;;;;;;;;;;;;;;;19.12;100.00;102106.69;5065375;28;1319;-84
2023/09/02 12:09:31;;;;;;;;;;;;;;;19.14;100.00;102109.16;5050943;28;1949;-84
2023/09/02 12:11:57;;;;;;;;;;;;;;;19.14;100.00;102114.41;5066222;28;1543;-81
2023/09/02 12:14:22;;;;;;;;;;;;;;;19.17;100.00;102124.66;5067384;28;1140;-85
2023/09/02 12:16:48;;;;;;;;;;;;;;;19.18;100.00;102115.78;5067212;28;1273;-85
2023/09/02 12:19:13;;;;;;;;;;;;;;;19.21;100.00;102121.56;5067222;28;1164;-85
2023/09/02 12:21:40;;;;;;;;;;;;;;;19.25;100.00;102122.09;5066854;28;997;-85
2023/09/02 12:24:05;;;;;;;;;;;;;;;19.22;100.00;102132.91;5058911;28;1174;-85
2023/09/02 12:26:31;;;;;;;;;;;;;;;19.22;100.00;102138.19;5060558;28;993;-85
2023/09/02 12:28:56;;;;;;;;;;;;;;;19.23;100.00;102139.81;5064895;28;1904;-85
2023/09/02 12:31:21;;;;;;;;;;;;;;;19.22;100.00;102132.91;5063478;28;1123;-85
2023/09/02 12:33:51;;;;;;;;;;;;;;;19.25;100.00;102137.88;5053347;28;1292;-84